Orbital elements of FENGYUN 1C DEB
| Launched | 9 May 1999 |
| Flight ended | – |
| Launch site | Taiyuan Space Center, PRC |
| Owner | People's Republic of China |
| NORAD ID | 31685 |
| Date fetched |
Epoch osculation |
Inc. [°] |
Ecc. | RA asc node [hr] |
Arg Peri. [°] |
Mean anom [°] |
Mean motion [rev/day] |
Abs. mag |
| Date fetched |
Epoch osculation |
Inc. [°] |
Ecc. | RA asc node [hr] |
Arg Peri. [°] |
Mean anom [°] |
Mean motion [rev/day] |
Abs. mag |
| 2026 May 05 17:57 | 2026 May 05 07:14:09 | 98.7158 | 0.00167 | 10.0077 | 177.7929 | 182.3318 | 14.09711 | – |
| 2026 May 04 17:57 | 2026 Apr 27 06:44:53 | 98.7165 | 0.00162 | 9.4898 | 200.6213 | 182.3318 | 14.09711 | – |
| 2026 May 03 17:57 | 2026 Apr 27 06:44:53 | 98.7165 | 0.00162 | 9.4898 | 200.6213 | 182.3318 | 14.09711 | – |
| 2026 May 02 17:57 | 2026 Apr 27 06:44:53 | 98.7165 | 0.00162 | 9.4898 | 200.6213 | 182.3318 | 14.09711 | – |
| 2026 May 01 17:56 | 2026 Apr 27 06:44:53 | 98.7165 | 0.00162 | 9.4898 | 200.6213 | 182.3318 | 14.09711 | – |
| 2026 Apr 30 17:56 | 2026 Apr 27 06:44:53 | 98.7165 | 0.00162 | 9.4898 | 200.6213 | 182.3318 | 14.09711 | – |
| 2026 Apr 29 17:57 | 2026 Apr 24 12:18:51 | 98.7172 | 0.00161 | 9.3111 | 208.6735 | 182.3318 | 14.09711 | – |
| 2026 Apr 28 17:56 | 2026 Apr 24 12:18:51 | 98.7172 | 0.00161 | 9.3111 | 208.6735 | 182.3318 | 14.09711 | – |
| 2026 Apr 27 17:58 | 2026 Apr 24 12:18:51 | 98.7172 | 0.00161 | 9.3111 | 208.6735 | 182.3318 | 14.09711 | – |
| 2026 Apr 26 17:58 | 2026 Apr 24 12:18:51 | 98.7172 | 0.00161 | 9.3111 | 208.6735 | 182.3318 | 14.09711 | – |
| 2026 Apr 25 17:58 | 2026 Apr 24 12:18:51 | 98.7172 | 0.00161 | 9.3111 | 208.6735 | 182.3318 | 14.09711 | – |
| 2026 Apr 24 17:59 | 2026 Apr 24 12:18:51 | 98.7172 | 0.00161 | 9.3111 | 208.6735 | 182.3318 | 14.09711 | – |
| 2026 Apr 23 17:57 | 2026 Apr 19 07:57:48 | 98.7178 | 0.00158 | 8.9764 | 223.9022 | 182.3318 | 14.09711 | – |
| 2026 Apr 22 17:57 | 2026 Apr 19 07:57:48 | 98.7178 | 0.00158 | 8.9764 | 223.9022 | 182.3318 | 14.09711 | – |
| 2026 Apr 21 17:57 | 2026 Apr 19 07:57:48 | 98.7178 | 0.00158 | 8.9764 | 223.9022 | 182.3318 | 14.09711 | – |
| 2026 Apr 20 17:57 | 2026 Apr 19 07:57:48 | 98.7178 | 0.00158 | 8.9764 | 223.9022 | 182.3318 | 14.09711 | – |
| 2026 Apr 19 17:58 | 2026 Apr 19 07:57:48 | 98.7178 | 0.00158 | 8.9764 | 223.9022 | 182.3318 | 14.09711 | – |
| 2026 Apr 18 17:56 | 2026 Apr 13 07:10:17 | 98.7191 | 0.00156 | 8.5868 | 242.1708 | 182.3318 | 14.09711 | – |
| 2026 Apr 16 17:57 | 2026 Apr 13 07:10:17 | 98.7191 | 0.00156 | 8.5868 | 242.1708 | 182.3318 | 14.09711 | – |
| 2026 Apr 14 17:57 | 2026 Apr 13 07:10:17 | 98.7191 | 0.00156 | 8.5868 | 242.1708 | 182.3318 | 14.09711 | – |
| 2026 Apr 13 17:57 | 2026 Apr 13 07:10:17 | 98.7191 | 0.00156 | 8.5868 | 242.1708 | 182.3318 | 14.09711 | – |
| 2026 Apr 12 17:57 | 2026 Apr 02 00:19:31 | 98.7205 | 0.00155 | 7.8578 | 276.3438 | 182.3318 | 14.09711 | – |
| 2026 Apr 11 17:57 | 2026 Apr 02 00:19:31 | 98.7205 | 0.00155 | 7.8578 | 276.3438 | 182.3318 | 14.09711 | – |
| 2026 Apr 10 17:58 | 2026 Apr 02 00:19:31 | 98.7205 | 0.00155 | 7.8578 | 276.3438 | 182.3318 | 14.09711 | – |
| 2026 Apr 09 18:01 | 2026 Apr 02 00:19:31 | 98.7205 | 0.00155 | 7.8578 | 276.3438 | 182.3318 | 14.09711 | – |
| 2026 Apr 08 17:57 | 2026 Apr 02 00:19:31 | 98.7205 | 0.00155 | 7.8578 | 276.3438 | 182.3318 | 14.09711 | – |